Tiempo atmosférico en la estación meteorológica de El Bodón Base Aérea, Salamanca (805 m.)



Fecha
DESCASC
Temp. máxima en grados centígrados (hora)
DESCASC
Temp. mínima en grados centígrados (hora)
DESCASC
Temp. media en grados centígrados
DESCASC
Racha de viento máxima en m/sg (hora)
DESCASC
Velocidad máxima media en intervalos de 10 minutos(hora)
DESCASC
Precipitaciones diarias en mm
DESCASC
Precipitaciones de 00:00 a 06:00 en mm
DESCASC
Precipitaciones de 06:00 a 12:00 en mm
DESCASC
Precipitaciones de 12:00 a 18:00 en mm
DESCASC
Precipitaciones de 18:00 a 24:00 en mm
DESCASC
25-02-2021 12.3 (16:10) 7.1 (08:00) 9.7 10.56 (05:50) 6.11 (09:00) 0 0 0 0 0
24-02-2021 13.5 (16:20) 5.3 (07:10) 9.4 15.28 (14:20) 9.72 (14:40) 0 0 0 0 0
23-02-2021 12.1 (15:40) 0.6 (04:00) 6.4 13.89 (12:00) 8.89 (12:00) 0 0 0 0 0
22-02-2021 11.8 (17:30) -0.6 (08:30) 5.6 6.67 (01:10) 4.72 (01:20) 0 0 0 0 0
21-02-2021 11.6 (02:20) 2.4 (00:00) 7 23.33 (05:20) 14.17 (04:20) 17.6 8.4 9.2 0 0
20-02-2021 11.6 (22:30) 7.1 (00:00) 9.4 18.61 (10:00) 11.67 (11:40) 0 0 0 0 0
19-02-2021 12 (16:30) 5.6 (00:00) 8.8 15 (23:30) 9.72 (23:30) 0 0 0 0 0
18-02-2021 12.3 (14:50) 6.3 (00:00) 9.3 14.17 (10:40) 9.17 (10:40) 1.6 0 0 1.2 0.4
17-02-2021 13.6 (16:00) 7.6 (00:00) 10.6 10.28 (22:30) 6.94 (22:30) 0 0 0 0 0
16-02-2021 11.1 (13:10) 7.1 (00:00) 9.1 13.61 (04:20) 8.61 (00:20) 0 0 0 0 0
15-02-2021 14.2 (14:50) 7.2 (00:00) 10.7 16.67 (13:10) 10.83 (13:00) 0 0 0 0 0
14-02-2021 14.7 (16:50) 3.6 (00:00) 9.1 12.22 (13:50) 7.78 (13:50) 0 0 0 0 0
13-02-2021 14.6 (16:10) 3.6 (00:00) 9.1 5 (15:30) 3.06 (21:00) 0 0 0 0 0
12-02-2021 13.1 (16:50) 6 (00:00) 9.6 11.67 (00:10) 7.22 (00:10) 4 4 0 0 0
11-02-2021 12.6 (13:50) 8.5 (00:00) 10.6 12.22 (23:50) 8.33 (13:30) 0.6 0 0 0 0.6
10-02-2021 13.4 (16:00) 5.3 (00:00) 9.3 13.33 (03:10) 8.06 (01:40) 4.8 4.6 0.2 0 0
09-02-2021 8.8 (16:10) 3.3 (00:00) 6.1 18.06 (09:30) 12.78 (09:30) 12 0 7.6 4 0.4
08-02-2021 8.7 (15:10) 4.4 (00:00) 6.5 13.33 (16:30) 8.33 (16:30) 6.8 5.4 1.4 0 0
07-02-2021 6 (12:30) 1.1 (00:00) 3.6 12.22 (22:20) 7.5 (22:40) 2 0 0 0.8 1.2
06-02-2021 8.4 (14:20) 4.9 (00:00) 6.6 8.61 (17:40) 5 (17:40) 3.4 2.4 0.8 0.2 0
05-02-2021 8.2 (13:50) 5.3 (00:00) 6.8 7.5 (01:50) 3.89 (06:00) 21.6 4.8 4.6 6.4 5.8
04-02-2021 8.3 (00:00) 4.9 (00:00) 6.6 7.5 (00:10) 4.72 (00:10) 18.4 0.2 13 5 0.2
03-02-2021 10.6 (14:30) 7.9 (00:00) 9.3 13.89 (00:40) 10.28 (01:40) 3.8 0 2 1.8 0
02-02-2021 9.9 (14:40) 8.4 (23:20) 9.1 13.06 (21:30) 8.33 (21:30) 0.2 0 0.2 0 0
01-02-2021 13.8 (16:40) 8 (00:00) 10.9 11.67 (00:40) 7.22 (00:40) 0 0 0 0 0
31-01-2021 14.4 (14:50) 6.6 (00:00) 10.5 14.72 (19:00) 8.89 (19:00) 0 0 0 0 0
30-01-2021 9.8 (14:10) 6.7 (00:00) 8.3 14.72 (15:30) 9.44 (14:00) 7.8 7.8 0 0 0

Gráficas

Temp. máximas Temp. mínimas Temp. medias Precipitaciones Rachas de viento máximas Velocidades máximas media en intervalos de 10 minutos

Datos horarios

Fecha y hora oficial Temperatura (ºC) Velocidad del viento (km/h) Dirección del viento Racha (km/h) Dirección de racha Precipitación (mm) Presión (hPa) Tendencia (hPa) Humedad (%)
2021-02-28 23:00:00 5.9 10 Sur 13 Sur 0 -- -- 87
2021-02-28 22:00:00 6.4 9 Sur 15 Sur 0 -- -- 86
2021-02-28 21:00:00 6.5 11 Sur 16 Sur 0 -- -- 84
2021-02-28 20:00:00 8 11 Sur 17 Sur 0 -- -- 78
2021-02-28 19:00:00 10.4 14 Sur 24 Sur 0 -- -- 68
2021-02-28 18:00:00 12.5 14 Sur 26 Sur 0 -- -- 61
2021-02-28 17:00:00 13.4 18 Sur 27 Sur 0 -- -- 57
2021-02-28 16:00:00 13.3 16 Sur 27 Sur 0 -- -- 55
2021-02-28 15:00:00 13.2 15 Sur 29 Sur 0 -- -- 60
2021-02-28 14:00:00 12.8 20 Sur 30 Sur 0 -- -- 59
2021-02-28 13:00:00 10.3 4 Norte 9 Norte 0 -- -- 75
2021-02-28 12:00:00 7.4 3 Noroeste 7 Norte 0 -- -- 81
2021-02-28 11:00:00 4.9 3 Norte 8 Norte 0 -- -- 91
2021-02-28 10:00:00 2.4 4 Norte 7 Norte 0 -- -- 96
2021-02-28 09:00:00 -0.1 2 Noroeste 7 Sur 0 -- -- 95
2021-02-28 08:00:00 -0.3 4 Sudoeste 6 Sudoeste 0 -- -- 93
2021-02-28 07:00:00 0.6 2 Noroeste 6 Noroeste 0 -- -- 93
2021-02-28 06:00:00 1.3 0 Calma 5 Norte 0 -- -- 93
2021-02-28 05:00:00 2.3 5 Norte 10 Norte 0 -- -- 94
2021-02-28 04:00:00 2.6 2 Oeste 6 Norte 0 -- -- 90
2021-02-28 03:00:00 3.4 2 Sudoeste 7 Sudoeste 0 -- -- 89
2021-02-28 02:00:00 4.5 4 Sur 10 Sur 0 -- -- 88
2021-02-28 01:00:00 6.5 4 Noroeste 13 Norte 0 -- -- 85
2021-02-28 00:00:00 6.9 4 Noroeste 13 Norte 0 -- -- 88
2021-02-27 23:00:00 8 10 Norte 14 Norte 0 -- -- 85
2021-02-27 22:00:00 8.5 8 Norte 17 Nordeste 0 -- -- 81
2021-02-27 21:00:00 10.1 13 Nordeste 23 Norte 0 -- -- 74
2021-02-27 20:00:00 11.2 11 Norte 17 Nordeste 0 -- -- 72
2021-02-27 19:00:00 12.7 13 Nordeste 22 Nordeste 0 -- -- 67
2021-02-27 18:00:00 14.5 14 Norte 29 Nordeste 0 -- -- 62
2021-02-27 17:00:00 14.8 16 Nordeste 31 Nordeste 0 -- -- 61
2021-02-27 16:00:00 14.1 16 Nordeste 25 Norte 0 -- -- 66
2021-02-27 15:00:00 12 10 Norte 19 Norte 0 -- -- 78
2021-02-27 14:00:00 9.2 7 Norte 18 Norte 0 -- -- 93
2021-02-27 13:00:00 6.4 9 Norte 16 Norte 0 -- -- 99
2021-02-27 12:00:00 5.2 8 Norte 12 Norte 0 -- -- 99
2021-02-27 11:00:00 4.2 5 Norte 10 Norte 0 -- -- 99
2021-02-27 10:00:00 3.9 4 Nordeste 10 Norte 0 -- -- 99
2021-02-27 09:00:00 3.8 3 Norte 8 Norte 0 -- -- 99
2021-02-27 08:00:00 3.2 4 Sur 5 Sur 0 -- -- 99
2021-02-27 07:00:00 2.6 2 Sur 4 Sur 0 -- -- 98
2021-02-27 06:00:00 3.4 0 Calma 6 Sur 0 -- -- 98
2021-02-27 05:00:00 3.1 4 Sur 6 Sur 0 -- -- 97
2021-02-27 04:00:00 3.9 2 Sur 8 Sur 0 -- -- 97
2021-02-27 03:00:00 4.4 4 Sur 7 Sur 0 -- -- 96
2021-02-27 02:00:00 5.1 2 Oeste 10 Sur 0 -- -- 96
2021-02-27 01:00:00 5.3 6 Sur 8 Sur 0 -- -- 94
2021-02-27 00:00:00 6.4 0 Calma 3 Sur 0 -- -- 93
2021-02-26 23:00:00 7.1 0 Calma 5 Sur 0 -- -- 90
2021-02-26 22:00:00 8.3 0 Calma 6 Norte 0 -- -- 87
2021-02-26 21:00:00 9.3 4 Norte 9 Norte 0 -- -- 84
2021-02-26 20:00:00 9.9 4 Norte 6 Norte 0 -- -- 83
2021-02-26 19:00:00 10.5 3 Noroeste 6 Norte 0 -- -- 84
2021-02-26 18:00:00 11.1 5 Norte 8 Norte 0 -- -- 83
2021-02-26 17:00:00 11.2 3 Nordeste 13 Norte 0 -- -- 84
2021-02-26 16:00:00 11.2 8 Norte 12 Norte 0 -- -- 82
2021-02-26 15:00:00 10.1 5 Nordeste 12 Norte 0 -- -- 87
2021-02-26 14:00:00 9.2 5 Norte 12 Norte 0 -- -- 90
2021-02-26 13:00:00 8.2 4 Noroeste 13 Noroeste 0 -- -- 97
2021-02-26 12:00:00 7.1 5 Noroeste 10 Noroeste 0 -- -- 99
2021-02-26 11:00:00 6.5 3 Oeste 9 Norte 0 -- -- 99
2021-02-26 10:00:00 6.3 4 Norte 9 Norte 0 -- -- 99
2021-02-26 09:00:00 5.5 3 Sudeste 6 Sudeste 0 -- -- 98
2021-02-26 08:00:00 5.6 4 Noroeste 12 Sudoeste 0 -- -- 98
2021-02-26 07:00:00 5.6 5 Sudoeste 9 Sudoeste 0 -- -- 98
2021-02-26 06:00:00 5.9 0 Calma 5 Nordeste 0 -- -- 97
2021-02-26 05:00:00 6 0 Calma 10 Norte 0 -- -- 97
2021-02-26 04:00:00 6.1 2 Norte 9 Sur 0 -- -- 96
2021-02-26 03:00:00 6.5 5 Sur 8 Sudeste 0 -- -- 95
2021-02-26 02:00:00 7.2 0 Calma 2 Nordeste 0 -- -- 93
2021-02-26 01:00:00 8 0 Calma 5 Sur 0 -- -- 92
2021-02-26 00:00:00 8.5 3 Sur 5 Norte 0 -- -- 91
2021-02-25 23:00:00 8.5 3 Sudoeste 7 Norte 0 -- -- 91
2021-02-25 22:00:00 8.8 5 Norte 8 Norte 0 -- -- 87
2021-02-25 21:00:00 9 3 Nordeste 8 Norte 0 -- -- 84
2021-02-25 20:00:00 8.9 6 Sur 8 Sur 0 -- -- 82
2021-02-25 19:00:00 10 5 Sur 9 Sur 0 -- -- 79
2021-02-25 18:00:00 10.7 6 Sur 18 Sur 0 -- -- 76
2021-02-25 17:00:00 11.6 12 Sur 28 Sudeste 0 -- -- 74
2021-02-25 16:00:00 12 16 Sudeste 30 Sudeste 0 -- -- 70
2021-02-25 15:00:00 11.5 18 Sur 32 Sur 0 -- -- 72
2021-02-25 14:00:00 10.3 15 Sur 36 Sur 0 -- -- 76
2021-02-25 13:00:00 9.2 12 Sur 31 Sur 0 -- -- 80
2021-02-25 12:00:00 8.4 18 Sur 31 Sur 0 -- -- 83
2021-02-25 11:00:00 8.3 17 Sur 30 Sur 0 -- -- 84
2021-02-25 10:00:00 7.8 18 Sur 34 Sur 0 -- -- 88
2021-02-25 09:00:00 7.6 22 Sur 35 Sur 0 -- -- 87
2021-02-25 08:00:00 7.1 13 Sur 26 Sur 0 -- -- 88
2021-02-25 07:00:00 7.8 16 Sur 30 Sur 0 -- -- 84
2021-02-25 06:00:00 8.5 18 Sur 38 Sudeste 0 -- -- 81
2021-02-25 05:00:00 8.8 12 Sur 27 Sudeste 0 -- -- 81
2021-02-25 04:00:00 8.4 10 Sur 25 Sudeste 0 -- -- 84
2021-02-25 03:00:00 8.2 10 Sur 20 Sur 0 -- -- 85
2021-02-25 02:00:00 8.6 9 Sur 19 Sur 0 -- -- 85
2021-02-25 01:00:00 9.4 9 Sur 18 Sur 0 -- -- 82
2021-02-25 00:00:00 10 7 Sur 18 Sudeste 0 -- -- 81
2021-02-24 23:00:00 10.4 11 Sudeste 22 Sudeste 0 -- -- 79
2021-02-24 22:00:00 10.1 9 Sur 16 Sudeste 0 -- -- 81
2021-02-24 21:00:00 9.5 7 Sudeste 15 Sur 0 -- -- 84
2021-02-24 20:00:00 9.6 9 Sur 23 Sur 0 -- -- 81
2021-02-24 19:00:00 11 12 Sur 33 Sur 0 -- -- 75
2021-02-24 18:00:00 12.7 20 Sur 42 Sur 0 -- -- 68
2021-02-24 17:00:00 12.9 27 Sur 45 Sur 0 -- -- 66
2021-02-24 16:00:00 13.2 26 Sur 46 Sur 0 -- -- 65
2021-02-24 15:00:00 12.9 28 Sur 55 Sur 0 -- -- 64
2021-02-24 14:00:00 12.8 33 Sur 53 Sur 0 -- -- 62
2021-02-24 13:00:00 12.3 30 Sur 49 Sur 0 -- -- 62
2021-02-24 12:00:00 11.1 28 Sur 44 Sur 0 -- -- 66
2021-02-24 11:00:00 9.8 18 Sur 34 Sur 0 -- -- 73
2021-02-24 10:00:00 8.3 17 Sur 26 Sur 0 -- -- 76
2021-02-24 09:00:00 6.4 12 Sur 28 Sur 0 -- -- 82
2021-02-24 08:00:00 6.4 14 Sur 26 Sur 0 -- -- 80
2021-02-24 07:00:00 5.5 3 Sudoeste 15 Sur 0 -- -- 81
2021-02-24 06:00:00 6.3 11 Sur 22 Sur 0 -- -- 79
2021-02-24 05:00:00 6.7 13 Sur 24 Sur 0 -- -- 78
2021-02-24 04:00:00 7.3 14 Sur 28 Sur 0 -- -- 76
2021-02-24 03:00:00 8.4 17 Sudeste 28 Sudeste 0 -- -- 71
2021-02-24 02:00:00 7.7 12 Sur 30 Sur 0 -- -- 74
2021-02-24 01:00:00 8.7 14 Sudeste 36 Sudeste 0 -- -- 69
2021-02-24 00:00:00 8.7 18 Sudeste 31 Sudeste 0 -- -- 70
2021-02-23 23:00:00 8 14 Sur 24 Sur 0 -- -- 72
2021-02-23 22:00:00 7.8 13 Sur 23 Sur 0 -- -- 71
2021-02-23 21:00:00 7 10 Sur 19 Sur 0 -- -- 72
2021-02-23 20:00:00 7.7 10 Sur 21 Sur 0 -- -- 71
2021-02-23 19:00:00 9.8 14 Sur 31 Sur 0 -- -- 64
2021-02-23 18:00:00 11.3 19 Sur 35 Sur 0 -- -- 57
2021-02-23 17:00:00 11.7 24 Sur 42 Sur 0 -- -- 55
2021-02-23 16:00:00 11.9 22 Sur 42 Sur 0 -- -- 51
2021-02-23 15:00:00 11.7 29 Sur 46 Sur 0 -- -- 46
2021-02-23 14:00:00 11.5 22 Sur 43 Sur 0 -- -- 46
2021-02-23 13:00:00 10.7 23 Sur 48 Sur 0 -- -- 49
2021-02-23 12:00:00 9.4 32 Sur 50 Sur 0 -- -- 58
2021-02-23 11:00:00 8.5 26 Sur 40 Sur 0 -- -- 72
2021-02-23 10:00:00 7 18 Sur 28 Sudeste 0 -- -- 77
2021-02-23 09:00:00 3.6 12 Sur 21 Sur 0 -- -- 92
2021-02-23 08:00:00 2.5 14 Sur 22 Sur 0 -- -- 94
2021-02-23 07:00:00 1.4 12 Sur 17 Sur 0 -- -- 94
2021-02-23 06:00:00 1.4 10 Sur 14 Sur 0 -- -- 95
2021-02-23 05:00:00 1.5 9 Sur 15 Sur 0 -- -- 94
2021-02-23 04:00:00 0.6 10 Sur 17 Sur 0 -- -- 94
2021-02-23 03:00:00 0.9 12 Sur 16 Sur 0 -- -- 94
2021-02-23 02:00:00 1.3 9 Sur 13 Sur 0 -- -- 93
2021-02-23 01:00:00 2 8 Sur 13 Sudeste 0 -- -- 92
2021-02-23 00:00:00 3.2 7 Sur 12 Sur 0 -- -- 89
2021-02-22 23:00:00 3.6 8 Sudeste 12 Sur 0 -- -- 87
2021-02-22 22:00:00 4.1 8 Sur 13 Sur 0 -- -- 85
2021-02-22 21:00:00 5.2 8 Sur 13 Sur 0 -- -- 81
2021-02-22 20:00:00 6.6 6 Sur 13 Sudoeste 0 -- -- 76
2021-02-22 19:00:00 9.2 8 Sur 15 Sur 0 -- -- 67
2021-02-22 18:00:00 11.5 5 Norte 11 Oeste 0 -- -- 44
2021-02-22 17:00:00 11.7 4 Noroeste 13 Noroeste 0 -- -- 47
2021-02-22 16:00:00 11.3 7 Oeste 15 Oeste 0 -- -- 44
2021-02-22 15:00:00 10.6 4 Sur 9 Sudoeste 0 -- -- 53
2021-02-22 14:00:00 9.7 4 Sudeste 10 Sur 0 -- -- 58
2021-02-22 13:00:00 8.2 6 Oeste 14 Noroeste 0 -- -- 62
2021-02-22 12:00:00 6.7 2 Noroeste 10 Oeste 0 -- -- 75
2021-02-22 11:00:00 4.6 0 Calma 9 Sudeste 0 -- -- 94
2021-02-22 10:00:00 1.3 6 Sur 8 Sur 0 -- -- 99
2021-02-22 09:00:00 -0.1 4 Sur 8 Sur 0 -- -- 97
2021-02-22 08:00:00 0.3 2 Sudeste 4 Sudeste 0 -- -- 96
2021-02-22 07:00:00 0.7 3 Oeste 17 Oeste 0 -- -- 95
2021-02-22 06:00:00 1.1 12 Oeste 19 Oeste 0 -- -- 95
2021-02-22 05:00:00 1.4 13 Oeste 21 Oeste 0 -- -- 95
2021-02-22 04:00:00 1.5 13 Noroeste 21 Noroeste 0 -- -- 94
2021-02-22 03:00:00 1.4 12 Noroeste 20 Noroeste 0 -- -- 93
2021-02-22 02:00:00 1.8 13 Noroeste 24 Noroeste 0 -- -- 93
2021-02-22 01:00:00 2.6 17 Noroeste 24 Noroeste 0 -- -- 92
2021-02-22 00:00:00 3.3 14 Noroeste 24 Oeste 0 -- -- 90
2021-02-21 23:00:00 4 13 Noroeste 27 Noroeste 0 -- -- 86
2021-02-21 22:00:00 4.6 19 Noroeste 30 Noroeste 0 -- -- 84
2021-02-21 21:00:00 4.8 16 Noroeste 29 Noroeste 0 -- -- 83
2021-02-21 20:00:00 5.7 22 Noroeste 31 Noroeste 0 -- -- 78
2021-02-21 19:00:00 6.1 13 Noroeste 22 Norte 0 -- -- 75
2021-02-21 18:00:00 6.5 15 Noroeste 29 Norte 0 -- -- 74
2021-02-21 17:00:00 6.5 18 Norte 27 Noroeste 0 -- -- 79
2021-02-21 16:00:00 6.1 14 Noroeste 25 Noroeste 0 -- -- 85
2021-02-21 15:00:00 5 15 Noroeste 24 Noroeste 0 -- -- 90
2021-02-21 14:00:00 4.5 6 Norte 12 Norte 0 -- -- 94
2021-02-21 13:00:00 3.7 3 Nordeste 14 Nordeste 0 -- -- 93
2021-02-21 12:00:00 3.7 4 Noroeste 9 Noroeste 0.2 -- -- 94
2021-02-21 11:00:00 2.7 5 Oeste 26 Oeste 1.2 -- -- 95
2021-02-21 10:00:00 2.5 19 Oeste 36 Oeste 3 -- -- 94
2021-02-21 09:00:00 6.8 16 Sudoeste 33 Sur 1 -- -- 95
2021-02-21 08:00:00 6.9 17 Sur 39 Sudeste 1.4 -- -- 95
2021-02-21 07:00:00 6.8 23 Sur 54 Sur 2.4 -- -- 93
2021-02-21 06:00:00 7 28 Sudeste 84 Sur 6.4 -- -- 88
2021-02-21 05:00:00 8.3 34 Sudeste 84 Sur 2 -- -- 75
2021-02-21 04:00:00 10.7 43 Sur 72 Sur 0 -- -- 57
2021-02-21 03:00:00 11.5 30 Sudeste 64 Sur 0 -- -- 50
2021-02-21 02:00:00 11.5 34 Sur 60 Sudeste 0 -- -- 54
2021-02-21 01:00:00 11.2 29 Sur 55 Sudeste 0 -- -- 56
2021-02-21 00:00:00 11.4 27 Sur 54 Sur 0 -- -- 48
2021-02-20 23:00:00 11.4 29 Sur 57 Sur 0 -- -- 46
2021-02-20 22:00:00 11.4 30 Sur 61 Sur 0 -- -- 49
2021-02-20 21:00:00 11.1 34 Sur 60 Sudeste 0 -- -- 53
2021-02-20 20:00:00 10.8 31 Sur 60 Sur 0 -- -- 57
2021-02-20 19:00:00 10.5 31 Sur 60 Sudeste 0 -- -- 59
2021-02-20 18:00:00 10.6 31 Sur 50 Sur 0 -- -- 62
2021-02-20 17:00:00 10.6 32 Sur 60 Sur 0 -- -- 66
2021-02-20 16:00:00 10.4 36 Sur 61 Sur 0 -- -- 73
2021-02-20 15:00:00 10.1 36 Sur 66 Sudeste 0 -- -- 75
2021-02-20 14:00:00 10 34 Sur 62 Sudeste 0 -- -- 77
2021-02-20 13:00:00 9.6 33 Sur 62 Sur 0 -- -- 81
2021-02-20 12:00:00 8.7 39 Sur 66 Sur 0 -- -- 82
2021-02-20 11:00:00 8.7 40 Sur 67 Sur 0 -- -- 83
2021-02-20 10:00:00 7.8 39 Sur 67 Sur 0 -- -- 87
2021-02-20 09:00:00 7.5 31 Sur 63 Sur 0 -- -- 85
2021-02-20 08:00:00 7.5 34 Sur 60 Sur 0 -- -- 85
2021-02-20 07:00:00 7.2 28 Sur 50 Sur 0 -- -- 89
2021-02-20 06:00:00 7.1 24 Sur 50 Sur 0 -- -- 89
2021-02-20 05:00:00 7.2 29 Sur 48 Sur 0 -- -- 89
2021-02-20 04:00:00 7.4 30 Sur 50 Sur 0 -- -- 85
2021-02-20 03:00:00 7.7 32 Sur 54 Sur 0 -- -- 87
2021-02-20 02:00:00 8.2 33 Sur 56 Sur 0 -- -- 87
2021-02-20 01:00:00 8.5 33 Sur 51 Sur 0 -- -- 86
2021-02-20 00:00:00 9.1 22 Sur 54 Sur 0 -- -- 86
2021-02-19 23:00:00 9.2 27 Sur 46 Sur 0 -- -- 85
2021-02-19 22:00:00 8.9 23 Sur 43 Sur 0 -- -- 85
2021-02-19 21:00:00 8.8 26 Sur 46 Sur 0 -- -- 87
2021-02-19 20:00:00 9 26 Sur 40 Sur 0 -- -- 85
2021-02-19 19:00:00 9 16 Sur 37 Sur 0 -- -- 81
2021-02-19 18:00:00 9.8 18 Sur 33 Sur 0 -- -- 77
2021-02-19 17:00:00 11 19 Sur 39 Sudoeste 0 -- -- 67
2021-02-19 16:00:00 11.5 23 Sur 45 Sur 0 -- -- 70
2021-02-19 15:00:00 11.2 31 Sur 43 Sur 0 -- -- 65
2021-02-19 14:00:00 11.1 23 Sur 45 Sur 0 -- -- 74
2021-02-19 13:00:00 10.2 30 Sur 49 Sur 0 -- -- 79
2021-02-19 12:00:00 8.9 21 Sur 48 Sur 0 -- -- 87
2021-02-19 11:00:00 8.7 26 Sur 46 Sur 0 -- -- 90
2021-02-19 10:00:00 7.4 21 Sur 35 Sur 0 -- -- 93
2021-02-19 09:00:00 5.9 13 Sur 32 Sur 0 -- -- 94
2021-02-19 08:00:00 5.7 19 Sur 27 Sur 0 -- -- 92
2021-02-19 07:00:00 6 10 Sur 30 Sudeste 0 -- -- 89
2021-02-19 06:00:00 6.9 18 Sur 35 Sur 0 -- -- 84
2021-02-19 05:00:00 6.9 15 Sur 26 Sur 0 -- -- 88
2021-02-19 04:00:00 8.2 18 Sur 32 Sur 0 -- -- 87
2021-02-19 03:00:00 7.7 15 Sur 31 Sur 0 -- -- 88
2021-02-19 02:00:00 8.1 18 Sur 32 Sur 0 -- -- 87
2021-02-19 01:00:00 8.5 18 Sur 36 Sur 0 -- -- 85
2021-02-19 00:00:00 9.3 19 Sur 31 Sur 0 -- -- 83
2021-02-18 23:00:00 9.4 18 Sur 27 Sur 0 -- -- 85
2021-02-18 22:00:00 8.8 14 Sur 35 Sur 0 -- -- 87
2021-02-18 21:00:00 9.1 21 Sur 36 Sur 0.4 -- -- 88
2021-02-18 20:00:00 9.7 17 Sur 28 Sur 0 -- -- 87
2021-02-18 19:00:00 9.5 19 Sur 28 Sur 0 -- -- 89
2021-02-18 18:00:00 9.6 19 Sur 31 Sur 0 -- -- 89
2021-02-18 17:00:00 9.8 18 Sur 37 Sur 1.2 -- -- 89
2021-02-18 16:00:00 11.2 27 Sur 44 Sur 0 -- -- 77
2021-02-18 15:00:00 12.1 29 Sudoeste 45 Sur 0 -- -- 70
2021-02-18 14:00:00 11.9 30 Sur 48 Sudoeste 0 -- -- 71
2021-02-18 13:00:00 11.1 29 Sur 45 Sudoeste 0 -- -- 75
2021-02-18 12:00:00 9.1 26 Sur 44 Sur 0 -- -- 85
2021-02-18 11:00:00 9.2 33 Sur 51 Sur 0 -- -- 84
2021-02-18 10:00:00 8.5 25 Sur 39 Sur 0 -- -- 87
2021-02-18 09:00:00 7.1 21 Sur 35 Sur 0 -- -- 91
2021-02-18 08:00:00 6.7 20 Sur 36 Sur 0 -- -- 91
2021-02-18 07:00:00 6.6 20 Sur 31 Sur 0 -- -- 92
2021-02-18 06:00:00 6.4 16 Sur 29 Sur 0 -- -- 93
2021-02-18 05:00:00 6.8 21 Sur 30 Sur 0 -- -- 93
2021-02-18 04:00:00 7 16 Sur 26 Sur 0 -- -- 91
2021-02-18 03:00:00 7.5 15 Sur 36 Sur 0 -- -- 91
2021-02-18 02:00:00 8.4 19 Sur 35 Sudeste 0 -- -- 88
2021-02-18 01:00:00 8.8 20 Sur 31 Sur 0 -- -- 91
2021-02-18 00:00:00 8.8 15 Sur 33 Sur 0 -- -- 91
2021-02-17 23:00:00 9.4 21 Sur 37 Sur 0 -- -- 90
2021-02-17 22:00:00 10.1 22 Sur 35 Sur 0 -- -- 88
2021-02-17 21:00:00 10.3 21 Sur 33 Sur 0 -- -- 88
2021-02-17 20:00:00 9.5 12 Sur 26 Sur 0 -- -- 87
2021-02-17 19:00:00 10.8 15 Sur 33 Sur 0 -- -- 80
2021-02-17 18:00:00 12.5 22 Sur 33 Sur 0 -- -- 73
2021-02-17 17:00:00 13.3 16 Sur 34 Sur 0 -- -- 72
2021-02-17 16:00:00 13.6 21 Sur 34 Sur 0 -- -- 70
2021-02-17 15:00:00 12.7 24 Sur 34 Sur 0 -- -- 75
2021-02-17 14:00:00 12.2 19 Sur 32 Sudoeste 0 -- -- 78
2021-02-17 13:00:00 11.6 21 Sur 31 Sur 0 -- -- 80
2021-02-17 12:00:00 11 17 Sur 26 Sur 0 -- -- 84
2021-02-17 11:00:00 9.9 13 Sur 23 Sur 0 -- -- 91
2021-02-17 10:00:00 9.4 16 Sur 22 Sur 0 -- -- 94
2021-02-17 09:00:00 8.5 12 Sur 17 Sudeste 0 -- -- 96
2021-02-17 08:00:00 8.2 6 Sur 19 Sur 0 -- -- 94
2021-02-17 07:00:00 8.4 13 Sur 21 Sur 0 -- -- 96
2021-02-17 06:00:00 7.9 8 Sur 14 Sur 0 -- -- 96
2021-02-17 05:00:00 7.8 7 Sur 16 Sur 0 -- -- 96
2021-02-17 04:00:00 7.7 8 Sur 12 Sur 0 -- -- 96
2021-02-17 03:00:00 7.9 10 Sur 17 Sur 0 -- -- 95
2021-02-17 02:00:00 8.2 9 Sur 18 Sur 0 -- -- 93
2021-02-17 01:00:00 9.1 12 Sur 21 Sur 0 -- -- 93
2021-02-17 00:00:00 8.3 9 Sur 18 Sur 0 -- -- 91
2021-02-16 23:00:00 9.2 11 Sur 24 Sur 0 -- -- 88
2021-02-16 22:00:00 9.7 14 Sur 21 Sur 0 -- -- 86
2021-02-16 21:00:00 9.6 12 Sur 18 Sur 0 -- -- 85
2021-02-16 20:00:00 9.8 12 Sur 22 Sur 0 -- -- 85
2021-02-16 19:00:00 10 14 Sur 28 Sur 0 -- -- 84
2021-02-16 18:00:00 10.5 19 Sur 32 Sur 0 -- -- 81
2021-02-16 17:00:00 10.6 20 Sur 37 Sur 0 -- -- 82
2021-02-16 16:00:00 10.3 26 Sur 37 Sur 0 -- -- 83
2021-02-16 15:00:00 10.4 23 Sur 38 Sur 0 -- -- 81
2021-02-16 14:00:00 10.2 26 Sur 44 Sur 0 -- -- 80
2021-02-16 13:00:00 11 27 Sur 40 Sur 0 -- -- 77
2021-02-16 12:00:00 10.3 19 Sur 35 Sur 0 -- -- 77
2021-02-16 11:00:00 8.7 23 Sur 37 Sudoeste 0 -- -- 81
2021-02-16 10:00:00 8.1 27 Sur 42 Sur 0 -- -- 81
2021-02-16 09:00:00 7.1 23 Sur 36 Sur 0 -- -- 83
2021-02-16 08:00:00 7.7 26 Sur 42 Sur 0 -- -- 80
2021-02-16 07:00:00 7.9 21 Sur 40 Sudeste 0 -- -- 79
2021-02-16 06:00:00 7.9 21 Sur 42 Sur 0 -- -- 80
2021-02-16 05:00:00 8.5 26 Sur 49 Sur 0 -- -- 78
2021-02-16 04:00:00 9.1 24 Sur 45 Sur 0 -- -- 76
2021-02-16 03:00:00 9.9 27 Sur 45 Sudeste 0 -- -- 72
2021-02-16 02:00:00 10 28 Sur 46 Sur 0 -- -- 73
2021-02-16 01:00:00 10.1 30 Sur 48 Sur 0 -- -- 74
2021-02-16 00:00:00 10.6 32 Sur 51 Sur 0 -- -- 75
2021-02-15 23:00:00 10.6 30 Sur 54 Sur 0 -- -- 74
2021-02-15 22:00:00 10.7 30 Sur 48 Sur 0 -- -- 73
2021-02-15 21:00:00 10.8 33 Sur 48 Sur 0 -- -- 73
2021-02-15 20:00:00 11 28 Sur 47 Sur 0 -- -- 71
2021-02-15 19:00:00 11.6 24 Sur 51 Sur 0 -- -- 67
2021-02-15 18:00:00 12.8 28 Sur 54 Sudeste 0 -- -- 64
2021-02-15 17:00:00 13.7 32 Sur 55 Sur 0 -- -- 62
2021-02-15 16:00:00 14 28 Sur 49 Sur 0 -- -- 63
2021-02-15 15:00:00 14.1 27 Sudeste 48 Sudeste 0 -- -- 59
2021-02-15 14:00:00 13.9 29 Sur 60 Sur 0 -- -- 62
2021-02-15 13:00:00 12.7 39 Sur 56 Sur 0 -- -- 63
2021-02-15 12:00:00 12.1 28 Sur 50 Sur 0 -- -- 68
2021-02-15 11:00:00 11.2 26 Sur 43 Sur 0 -- -- 68
2021-02-15 10:00:00 9.9 16 Sur 28 Sur 0 -- -- 73
2021-02-15 09:00:00 7.5 13 Sudeste 36 Sur 0 -- -- 80
2021-02-15 08:00:00 8.3 22 Sur 37 Sur 0 -- -- 75
2021-02-15 07:00:00 7.7 15 Sur 35 Sur 0 -- -- 78
2021-02-15 06:00:00 8.6 24 Sur 36 Sur 0 -- -- 74
2021-02-15 05:00:00 9.4 23 Sur 33 Sur 0 -- -- 71
2021-02-15 04:00:00 8.7 17 Sur 24 Sur 0 -- -- 73
2021-02-15 03:00:00 9.4 17 Sur 31 Sur 0 -- -- 72
2021-02-15 02:00:00 9.8 23 Sur 37 Sur 0 -- -- 73
2021-02-15 01:00:00 9.4 21 Sur 33 Sur 0 -- -- 75
2021-02-15 00:00:00 9.8 24 Sur 34 Sur 0 -- -- 75
2021-02-14 23:00:00 9.8 19 Sur 34 Sudeste 0 -- -- 75
2021-02-14 22:00:00 9.7 22 Sur 33 Sur 0 -- -- 77
2021-02-14 21:00:00 9.5 15 Sur 23 Sur 0 -- -- 76
2021-02-14 20:00:00 10.1 13 Sur 30 Sur 0 -- -- 75
2021-02-14 19:00:00 11.6 19 Sur 34 Sur 0 -- -- 70
2021-02-14 18:00:00 13.5 20 Sur 31 Sur 0 -- -- 63
2021-02-14 17:00:00 14.5 17 Sur 36 Sur 0 -- -- 61
2021-02-14 16:00:00 14.5 22 Sur 39 Sur 0 -- -- 61
2021-02-14 15:00:00 14.5 26 Sur 38 Sur 0 -- -- 61
2021-02-14 14:00:00 13.8 28 Sur 44 Sur 0 -- -- 61
2021-02-14 13:00:00 13.4 25 Sur 42 Sur 0 -- -- 62
2021-02-14 12:00:00 13.4 21 Sur 35 Sur 0 -- -- 66
2021-02-14 11:00:00 11.9 22 Sur 31 Sur 0 -- -- 70
2021-02-14 10:00:00 9.2 13 Sur 19 Sur 0 -- -- 84
2021-02-14 09:00:00 6.1 12 Sur 18 Sur 0 -- -- 90
2021-02-14 08:00:00 5.3 11 Sur 17 Sur 0 -- -- 93
2021-02-14 07:00:00 4.8 13 Sur 17 Sur 0 -- -- 94
2021-02-14 06:00:00 4.2 10 Sur 15 Sur 0 -- -- 94
2021-02-14 05:00:00 4.6 11 Sur 14 Sur 0 -- -- 96
2021-02-14 04:00:00 3.6 8 Sudeste 14 Sur 0 -- -- 96
2021-02-14 03:00:00 4.7 9 Sur 14 Sur 0 -- -- 95
2021-02-14 02:00:00 5 8 Sur 15 Sur 0 -- -- 95
2021-02-14 01:00:00 5.7 10 Sur 13 Sur 0 -- -- 93
2021-02-14 00:00:00 6.4 6 Sur 9 Sur 0 -- -- 93
2021-02-13 23:00:00 7.1 7 Sur 10 Sur 0 -- -- 90
2021-02-13 22:00:00 8.6 10 Sudeste 12 Sudeste 0 -- -- 86
2021-02-13 21:00:00 9.5 11 Este 14 Este 0 -- -- 82
2021-02-13 20:00:00 10.8 8 Nordeste 14 Nordeste 0 -- -- 79
2021-02-13 19:00:00 11.9 3 Nordeste 9 Nordeste 0 -- -- 76
2021-02-13 18:00:00 13 9 Nordeste 15 Nordeste 0 -- -- 69
2021-02-13 17:00:00 13.8 7 Nordeste 13 Norte 0 -- -- 65
2021-02-13 16:00:00 14.4 3 Este 18 Noroeste 0 -- -- 64
2021-02-13 15:00:00 13.7 4 Noroeste 11 Norte 0 -- -- 66
2021-02-13 14:00:00 12.6 4 Norte 14 Este 0 -- -- 64
2021-02-13 13:00:00 11.1 4 Nordeste 12 Sudeste 0 -- -- 73
2021-02-13 08:00:00 -- -- -- -- -- -- -- -- --
2021-02-13 07:00:00 4.1 4 Norte 10 Sur 0 -- -- 93
2021-02-13 06:00:00 3.8 8 Sudeste 15 Sudeste 0 -- -- 93
2021-02-13 05:00:00 4.6 10 Sur 15 Sur 0 -- -- 92
2021-02-13 04:00:00 4.1 7 Sur 12 Sur 0 -- -- 95
2021-02-13 03:00:00 3.7 9 Sur 12 Sur 0 -- -- 96
2021-02-13 02:00:00 4 10 Sur 14 Sur 0 -- -- 95
2021-02-13 01:00:00 5.3 6 Sur 9 Sudeste 0 -- -- 92
2021-02-13 00:00:00 6.4 0 Calma 4 Norte 0 -- -- 88
2021-02-12 23:00:00 7.2 0 Calma 7 Noroeste 0 -- -- 85
2021-02-12 22:00:00 7.6 3 Norte 15 Oeste 0 -- -- 84
2021-02-12 21:00:00 7.6 8 Oeste 13 Oeste 0 -- -- 84
2021-02-12 20:00:00 7.9 8 Oeste 13 Oeste 0 -- -- 80
2021-02-12 19:00:00 9.4 9 Oeste 16 Noroeste 0 -- -- 74
2021-02-12 18:00:00 12 13 Noroeste 22 Oeste 0 -- -- 65
2021-02-12 17:00:00 13 14 Noroeste 23 Noroeste 0 -- -- 64
2021-02-12 16:00:00 12.8 15 Oeste 23 Oeste 0 -- -- 66
2021-02-12 15:00:00 11.1 10 Noroeste 21 Noroeste 0 -- -- 72
2021-02-12 14:00:00 10.6 18 Noroeste 26 Oeste 0 -- -- 74
2021-02-12 13:00:00 10.5 18 Noroeste 33 Noroeste 0 -- -- 76
2021-02-12 12:00:00 9.9 20 Noroeste 30 Noroeste 0 -- -- 82
2021-02-12 11:00:00 8.2 8 Noroeste 26 Noroeste 0 -- -- 92
2021-02-12 10:00:00 7.3 11 Noroeste 20 Noroeste 0 -- -- 95
2021-02-12 09:00:00 6 7 Noroeste 16 Oeste 0 -- -- 94
2021-02-12 08:00:00 6.5 9 Oeste 18 Oeste 0 -- -- 93
2021-02-12 07:00:00 6.4 10 Oeste 22 Oeste 0 -- -- 93
2021-02-12 06:00:00 7.3 15 Oeste 22 Oeste 0 -- -- 94
2021-02-12 05:00:00 8 10 Oeste 27 Oeste 0.2 -- -- 95
2021-02-12 04:00:00 9 14 Oeste 24 Oeste 0 -- -- 95
2021-02-12 03:00:00 9 12 Sudoeste 24 Sudoeste 0 -- -- 95
2021-02-12 02:00:00 10 22 Sudoeste 32 Sudoeste 0.2 -- -- 96
2021-02-12 01:00:00 10.1 19 Sudoeste 42 Sur 3.6 -- -- 96
2021-02-12 00:00:00 10.3 26 Sur 44 Sur 0.4 -- -- 97
2021-02-11 23:00:00 10.4 20 Sur 36 Sur 0 -- -- 96
2021-02-11 22:00:00 10.5 18 Sur 31 Sur 0 -- -- 95
2021-02-11 21:00:00 10.7 23 Sur 31 Sur 0 -- -- 96
2021-02-11 20:00:00 10.8 17 Sur 38 Sur 0.2 -- -- 95
2021-02-11 19:00:00 11.1 21 Sur 31 Sur 0 -- -- 90
2021-02-11 18:00:00 11.7 17 Sur 34 Sur 0 -- -- 88
2021-02-11 17:00:00 11.6 17 Sur 34 Sur 0 -- -- 92
2021-02-11 16:00:00 12.2 23 Sur 33 Sur 0 -- -- 89
2021-02-11 15:00:00 12 24 Sur 33 Sur 0 -- -- 89
2021-02-11 14:00:00 12.3 26 Sur 41 Sur 0 -- -- 85
2021-02-11 13:00:00 12 23 Sur 39 Sur 0 -- -- 88
2021-02-11 12:00:00 11.6 22 Sur 31 Sur 0 -- -- 92
2021-02-11 11:00:00 10.4 18 Sur 28 Sur 0 -- -- 95
2021-02-11 10:00:00 10.1 17 Sur 31 Sur 0 -- -- 95
2021-02-11 09:00:00 9.9 16 Sur 32 Sur 0 -- -- 95
2021-02-11 08:00:00 9.8 19 Sur 27 Sur 0 -- -- 95
2021-02-11 07:00:00 9.7 17 Sur 23 Sur 0 -- -- 95
2021-02-11 06:00:00 9.9 15 Sur 25 Sur 0 -- -- 95
2021-02-11 05:00:00 9.8 17 Sur 24 Sur 0 -- -- 95
2021-02-11 04:00:00 10 15 Sur 27 Sur 0 -- -- 94
2021-02-11 03:00:00 9.8 13 Sur 22 Sur 0 -- -- 95
2021-02-11 02:00:00 9.6 14 Sur 20 Sur 0 -- -- 95
2021-02-11 01:00:00 9.4 16 Sur 27 Sur 0 -- -- 95
2021-02-11 00:00:00 8.6 19 Sur 30 Sur 0 -- -- 93
2021-02-10 23:00:00 8.7 23 Sur 34 Sur 0 -- -- 91
2021-02-10 22:00:00 8.9 18 Sur 28 Sur 0 -- -- 87
2021-02-10 21:00:00 8.6 11 Sur 19 Sur 0 -- -- 83
2021-02-10 20:00:00 9.1 14 Sur 19 Sur 0 -- -- 79
2021-02-10 19:00:00 9.5 11 Sur 21 Sudoeste 0 -- -- 75
2021-02-10 18:00:00 10.4 12 Sudoeste 22 Sudoeste 0 -- -- 70
2021-02-10 17:00:00 11.3 14 Sudoeste 27 Oeste 0 -- -- 57
2021-02-10 16:00:00 13.4 14 Oeste 27 Oeste 0 -- -- 45
2021-02-10 15:00:00 12.5 10 Oeste 22 Oeste 0 -- -- 44
2021-02-10 14:00:00 11.2 14 Sudoeste 27 Oeste 0 -- -- 62
2021-02-10 13:00:00 9.9 11 Oeste 19 Oeste 0 -- -- 67
2021-02-10 12:00:00 8.3 9 Oeste 19 Noroeste 0 -- -- 78
2021-02-10 11:00:00 7 13 Noroeste 23 Noroeste 0 -- -- 85
2021-02-10 10:00:00 6.1 5 Norte 22 Oeste 0 -- -- 93
2021-02-10 09:00:00 5.5 15 Oeste 35 Oeste 0 -- -- 93
2021-02-10 08:00:00 5.7 10 Oeste 24 Oeste 0 -- -- 95
2021-02-10 07:00:00 5.3 9 Noroeste 28 Oeste 0.2 -- -- 95
2021-02-10 06:00:00 5.9 6 Oeste 22 Noroeste 0 -- -- 92
2021-02-10 05:00:00 6.1 8 Oeste 32 Oeste 0 -- -- 95
2021-02-10 04:00:00 6 22 Oeste 48 Oeste 0.8 -- -- 92
2021-02-10 03:00:00 6.4 21 Oeste 42 Oeste 3.2 -- -- 95
2021-02-10 02:00:00 6.5 24 Sudoeste 45 Sudoeste 0.4 -- -- 90
2021-02-10 01:00:00 6.4 29 Sudoeste 47 Sudoeste 0.2 -- -- 91
2021-02-10 00:00:00 5.8 28 Sur 40 Sudoeste 0 -- -- 92
2021-02-09 23:00:00 5.1 16 Sudoeste 37 Sudoeste 0 -- -- 88
2021-02-09 22:00:00 5.7 22 Oeste 47 Sudoeste 0.2 -- -- 91
2021-02-09 21:00:00 6.2 26 Sudoeste 42 Sur 0 -- -- 87
2021-02-09 20:00:00 5.8 25 Sudoeste 38 Sudoeste 0 -- -- 87
2021-02-09 19:00:00 6.1 23 Sudoeste 34 Sudoeste 0.2 -- -- 91
2021-02-09 18:00:00 5.5 13 Oeste 45 Sudoeste 2 -- -- 95
2021-02-09 17:00:00 8.5 34 Sudoeste 56 Sudoeste 0 -- -- 80
2021-02-09 16:00:00 8.4 19 Sudoeste 41 Sudoeste 0 -- -- 85
2021-02-09 15:00:00 7.9 26 Sudoeste 41 Sudoeste 0 -- -- 89
2021-02-09 14:00:00 5 17 Sur 26 Sur 0.4 -- -- 95
2021-02-09 13:00:00 3.5 13 Oeste 28 Oeste 1.6 -- -- 96
2021-02-09 12:00:00 4.9 34 Oeste 63 Oeste 5.2 -- -- 89
2021-02-09 11:00:00 7.7 29 Sudoeste 58 Sur 1.4 -- -- 95
2021-02-09 10:00:00 7.4 36 Sur 65 Sur 1 -- -- 93
2021-02-09 09:00:00 7.1 35 Sur 54 Sur 0 -- -- 93
2021-02-09 08:00:00 7.1 29 Sudoeste 51 Sudoeste 0 -- -- 95
2021-02-09 07:00:00 7.1 30 Sur 44 Sur 0 -- -- 94
2021-02-09 06:00:00 7 26 Sur 53 Sudoeste 0 -- -- 95
2021-02-09 05:00:00 6.8 30 Sur 51 Sur 0 -- -- 95
2021-02-09 04:00:00 6.5 32 Sudoeste 46 Sudoeste 0 -- -- 96
2021-02-09 03:00:00 6.2 29 Sur 41 Sur 0 -- -- 96
2021-02-09 02:00:00 5.4 21 Sur 34 Sur 0 -- -- 94
2021-02-09 01:00:00 5.4 22 Sur 34 Sur 0 -- -- 88
2021-02-09 00:00:00 5.4 13 Sur 25 Sudoeste 0 -- -- 86
2021-02-08 23:00:00 5.5 17 Sudoeste 26 Sur 0 -- -- 85
2021-02-08 22:00:00 5.4 14 Sur 20 Sudeste 0 -- -- 88
2021-02-08 21:00:00 6 12 Sudeste 24 Oeste 0 -- -- 87
2021-02-08 20:00:00 6.5 12 Oeste 30 Noroeste 0 -- -- 82
2021-02-08 19:00:00 6.9 18 Oeste 40 Oeste 0 -- -- 78
2021-02-08 18:00:00 7.4 24 Oeste 37 Oeste 0 -- -- 77
2021-02-08 17:00:00 7.9 24 Oeste 48 Oeste 0 -- -- 77
2021-02-08 16:00:00 7.8 22 Oeste 42 Oeste 0 -- -- 77
2021-02-08 15:00:00 8.3 23 Oeste 44 Oeste 0 -- -- 75
2021-02-08 14:00:00 7.9 25 Oeste 42 Sudoeste 0 -- -- 77
2021-02-08 13:00:00 7.3 23 Sudoeste 39 Sudoeste 0 -- -- 80
2021-02-08 12:00:00 7.4 19 Oeste 33 Oeste 0 -- -- 84
2021-02-08 11:00:00 5.8 16 Sudoeste 27 Oeste 0.2 -- -- 94
2021-02-08 10:00:00 5 15 Sudoeste 27 Sudoeste 0 -- -- 93
2021-02-08 09:00:00 4.5 16 Sudoeste 36 Sudoeste 0.4 -- -- 94
2021-02-08 08:00:00 4.8 26 Sudoeste 40 Sudoeste 0.8 -- -- 93
2021-02-08 07:00:00 5.2 14 Sur 23 Sur 0 -- -- 94
2021-02-08 06:00:00 5.3 14 Oeste 21 Oeste 0.2 -- -- 95
2021-02-08 05:00:00 5.5 5 Noroeste 32 Oeste 0.2 -- -- 94
2021-02-08 04:00:00 6.3 18 Oeste 29 Oeste 0 -- -- 94
2021-02-08 03:00:00 6.6 17 Oeste 32 Oeste 1.8 -- -- 98
2021-02-08 02:00:00 6.4 21 Sur 30 Sur 1.8 -- -- 98
2021-02-08 01:00:00 6.1 14 Sur 35 Sur 1.4 -- -- 97
2021-02-08 00:00:00 5.7 21 Sur 40 Sur 1.2 -- -- 96
2021-02-07 23:00:00 5.8 25 Sur 44 Sur 0 -- -- 94
2021-02-07 22:00:00 5.7 25 Sur 40 Sur 0 -- -- 95
2021-02-07 21:00:00 5.7 20 Sur 34 Sur 0 -- -- 96
2021-02-07 20:00:00 5.5 26 Sur 41 Sudoeste 0 -- -- 95
2021-02-07 19:00:00 5.2 15 Sur 28 Sur 0 -- -- 93
2021-02-07 18:00:00 5.2 16 Sur 21 Sur 0.2 -- -- 90
2021-02-07 17:00:00 4.8 8 Sur 13 Sur 0.2 -- -- 89
2021-02-07 16:00:00 5 4 Sur 5 Sur 0.2 -- -- 84
2021-02-07 15:00:00 5.1 2 Noroeste 14 Noroeste 0.2 -- -- 82
2021-02-07 14:00:00 5.3 12 Noroeste 20 Noroeste 0 -- -- 75
2021-02-07 13:00:00 5.2 12 Oeste 19 Oeste 0 -- -- 81
2021-02-07 12:00:00 5.6 9 Oeste 16 Oeste 0 -- -- 88
2021-02-07 11:00:00 3.6 7 Noroeste 16 Noroeste 0 -- -- 96
2021-02-07 10:00:00 2.3 2 Norte 8 Noroeste 0 -- -- 99
2021-02-07 09:00:00 1.5 0 Calma 4 Norte 0 -- -- 98
2021-02-07 08:00:00 1.5 3 Nordeste 8 Noroeste 0 -- -- 98
2021-02-07 07:00:00 1.1 6 Norte 9 Noroeste 0 -- -- 98
2021-02-07 06:00:00 2.1 4 Norte 9 Noroeste 0 -- -- 98
2021-02-07 05:00:00 3.4 5 Norte 14 Noroeste 0 -- -- 99
2021-02-07 04:00:00 3.4 11 Noroeste 18 Noroeste 0 -- -- 99
2021-02-07 03:00:00 3.9 9 Noroeste 19 Noroeste 0 -- -- 99
2021-02-07 02:00:00 4.9 6 Norte 20 Norte 0 -- -- 99
2021-02-07 01:00:00 5 12 Norte 18 Norte 0 -- -- 99
2021-02-07 00:00:00 4.9 6 Norte 20 Nordeste 0 -- -- 98
2021-02-06 23:00:00 5.1 12 Norte 24 Norte 0 -- -- 98
2021-02-06 22:00:00 5.4 10 Norte 15 Nordeste 0 -- -- 97
2021-02-06 21:00:00 5.5 12 Norte 28 Norte 0 -- -- 97
2021-02-06 20:00:00 6 14 Nordeste 25 Norte 0 -- -- 95
2021-02-06 19:00:00 6.5 11 Norte 23 Nordeste 0 -- -- 94
2021-02-06 18:00:00 6.6 11 Nordeste 31 Nordeste 0.2 -- -- 96
2021-02-06 17:00:00 6.8 15 Norte 24 Noroeste 0 -- -- 96
2021-02-06 16:00:00 7.8 13 Noroeste 21 Norte 0 -- -- 91
2021-02-06 15:00:00 7.7 13 Norte 21 Norte 0 -- -- 89
2021-02-06 14:00:00 8.2 8 Norte 15 Norte 0 -- -- 89
2021-02-06 13:00:00 7.2 6 Norte 12 Nordeste 0 -- -- 97
2021-02-06 12:00:00 6 8 Norte 12 Norte 0 -- -- 100
2021-02-06 11:00:00 5.9 4 Norte 10 Norte 0 -- -- 100
2021-02-06 10:00:00 5.4 7 Norte 11 Noroeste 0 -- -- 100
2021-02-06 09:00:00 5.4 6 Norte 12 Norte 0.6 -- -- 100
2021-02-06 08:00:00 5.5 7 Norte 11 Norte 0.2 -- -- 100
2021-02-06 07:00:00 5.5 3 Norte 6 Norte 0 -- -- 99
2021-02-06 06:00:00 5.6 4 Norte 6 Norte 0.6 -- -- 99
2021-02-06 05:00:00 5.5 3 Noroeste 5 Noroeste 0.2 -- -- 99
2021-02-06 04:00:00 5.3 3 Sudoeste 4 Oeste 0.4 -- -- 99
2021-02-06 03:00:00 5.3 2 Norte 4 Norte 0.2 -- -- 99
2021-02-06 02:00:00 5.4 0 Calma 4 Sudeste 0.8 -- -- 99
2021-02-06 01:00:00 5.6 2 Sudeste 6 Sudeste 0.2 -- -- 99
2021-02-06 00:00:00 5.7 0 Calma 5 Sudoeste 0.2 -- -- 99
2021-02-05 23:00:00 5.8 3 Norte 6 Norte 0 -- -- 99
2021-02-05 22:00:00 5.9 2 Norte 6 Noroeste 0.6 -- -- 98
2021-02-05 21:00:00 6.1 0 Calma 10 Sudoeste 1.8 -- -- 98
2021-02-05 20:00:00 6.6 9 Sudoeste 14 Sudoeste 2.4 -- -- 98
2021-02-05 19:00:00 7.3 3 Norte 5 Norte 0.8 -- -- 98
2021-02-05 18:00:00 7.5 2 Oeste 8 Sudeste 1 -- -- 98
2021-02-05 17:00:00 7.8 4 Sudeste 12 Sudeste 1.4 -- -- 98
2021-02-05 16:00:00 8 8 Sur 12 Sur 1.6 -- -- 98
2021-02-05 15:00:00 8 6 Sur 13 Sudeste 1.4 -- -- 99
2021-02-05 14:00:00 8.2 4 Sur 13 Sudeste 0.6 -- -- 100
2021-02-05 13:00:00 8.1 6 Sudeste 19 Sudeste 0.4 -- -- 100
2021-02-05 12:00:00 7.8 10 Sur 18 Sur 0.4 -- -- 100
2021-02-05 11:00:00 6.1 0 Calma 6 Sudeste 1 -- -- 100
2021-02-05 10:00:00 6 5 Sudeste 8 Este 0.4 -- -- 100
2021-02-05 09:00:00 5.3 8 Norte 12 Noroeste 0.4 -- -- 100
2021-02-05 08:00:00 5.3 5 Norte 24 Norte 1.4 -- -- 100
2021-02-05 07:00:00 5.3 10 Norte 21 Norte 1 -- -- 100
2021-02-05 06:00:00 5.4 14 Norte 22 Norte 0.2 -- -- 100
2021-02-05 05:00:00 5.3 12 Norte 19 Noroeste 0.4 -- -- 100
2021-02-05 04:00:00 5.3 8 Norte 14 Norte 0.4 -- -- 100
2021-02-05 03:00:00 5.6 3 Noroeste 14 Este 1.4 -- -- 100
2021-02-05 02:00:00 5.5 11 Este 27 Este 0 -- -- 100
2021-02-05 01:00:00 5.4 5 Norte 13 Noroeste 2.4 -- -- 99
2021-02-05 00:00:00 5.4 3 Oeste 6 Noroeste 0.2 -- -- 99
2021-02-04 23:00:00 5.5 4 Norte 7 Nordeste 0 -- -- 99
2021-02-04 22:00:00 5.5 2 Nordeste 10 Norte 0 -- -- 99
2021-02-04 21:00:00 5.5 4 Norte 8 Norte 0 -- -- 99
2021-02-04 20:00:00 5.6 6 Oeste 10 Noroeste 0 -- -- 99
2021-02-04 19:00:00 5.7 5 Norte 8 Norte 0 -- -- 98
2021-02-04 18:00:00 6.1 4 Norte 9 Noroeste 0 -- -- 98
2021-02-04 17:00:00 5.8 0 Calma 9 Noroeste 0 -- -- 98
2021-02-04 16:00:00 5.7 3 Nordeste 10 Norte 1.2 -- -- 98
2021-02-04 15:00:00 5.2 5 Nordeste 14 Nordeste 0.6 -- -- 97
2021-02-04 14:00:00 5.1 7 Nordeste 16 Nordeste 1 -- -- 98
2021-02-04 13:00:00 5 6 Nordeste 19 Nordeste 2.2 -- -- 97
2021-02-04 12:00:00 5.2 10 Norte 20 Norte 2.4 -- -- 97
2021-02-04 11:00:00 6.2 6 Nordeste 13 Nordeste 2.2 -- -- 98
2021-02-04 10:00:00 6.1 0 Calma 9 Sudoeste 4.2 -- -- 97
2021-02-04 09:00:00 6.1 6 Noroeste 17 Sudoeste 3.2 -- -- 97
2021-02-04 08:00:00 6.9 0 Calma 8 Sur 0.4 -- -- 97
2021-02-04 07:00:00 7 4 Sur 16 Sur 0.6 -- -- 95
2021-02-04 06:00:00 7.1 8 Sur 18 Sur 0.2 -- -- 95
2021-02-04 05:00:00 7.3 12 Sur 17 Sur 0 -- -- 95
2021-02-04 04:00:00 7.6 9 Sur 16 Sur 0 -- -- 95
2021-02-04 03:00:00 7.7 7 Sur 15 Sudoeste 0 -- -- 95
2021-02-04 02:00:00 7.9 9 Sur 18 Sur 0 -- -- 95
2021-02-04 01:00:00 8.1 10 Sur 27 Sur 0 -- -- 94
2021-02-04 00:00:00 8.3 19 Sur 26 Sudoeste 0 -- -- 93
2021-02-03 23:00:00 8.3 13 Sur 19 Sur 0 -- -- 94
2021-02-03 22:00:00 7.9 8 Sur 27 Sudoeste 0 -- -- 94
2021-02-03 21:00:00 8.3 12 Sudoeste 24 Sur 0 -- -- 93
2021-02-03 20:00:00 8.4 18 Sur 31 Sur 0 -- -- 93
2021-02-03 19:00:00 9 19 Sur 26 Sur 0 -- -- 94
2021-02-03 18:00:00 9.4 16 Sur 27 Sur 1 -- -- 95
2021-02-03 17:00:00 10.2 19 Sur 32 Sur 0 -- -- 91
2021-02-03 16:00:00 10.5 21 Sur 33 Sur 0 -- -- 92
2021-02-03 15:00:00 10.4 22 Sur 35 Sur 0 -- -- 92
2021-02-03 14:00:00 10.2 18 Sur 28 Sur 0.8 -- -- 94
2021-02-03 13:00:00 9.8 26 Sur 38 Sudoeste 0 -- -- 93
2021-02-03 12:00:00 9.5 21 Sur 39 Sur 0.2 -- -- 93
2021-02-03 11:00:00 9 21 Sur 32 Sur 0.4 -- -- 95
2021-02-03 10:00:00 8.9 19 Sur 32 Sur 0 -- -- 96
2021-02-03 09:00:00 8.2 17 Sur 33 Sur 1.4 -- -- 97
2021-02-03 08:00:00 8.1 20 Sur 41 Sur 0 -- -- 95
2021-02-03 07:00:00 8.2 25 Sur 43 Sur 0 -- -- 94
2021-02-03 06:00:00 8.2 24 Sur 40 Sur 0 -- -- 94
2021-02-03 05:00:00 8.1 25 Sur 40 Sur 0 -- -- 95
2021-02-03 04:00:00 8 26 Sur 41 Sur 0 -- -- 96
2021-02-03 03:00:00 8.2 28 Sur 49 Sur 0 -- -- 96
2021-02-03 02:00:00 8.3 33 Sur 50 Sur 0 -- -- 95
2021-02-03 01:00:00 8.1 32 Sur 50 Sur 0 -- -- 96
2021-02-03 00:00:00 8.4 28 Sur 42 Sur 0 -- -- 95
2021-02-02 23:00:00 8.6 25 Sur 41 Sur 0 -- -- 94
2021-02-02 22:00:00 8.6 22 Sur 47 Sur 0 -- -- 94
2021-02-02 21:00:00 8.9 26 Sur 41 Sur 0 -- -- 91
2021-02-02 20:00:00 9 21 Sur 37 Sur 0 -- -- 91
2021-02-02 19:00:00 8.9 23 Sur 38 Sudoeste 0 -- -- 93
2021-02-02 18:00:00 9.1 21 Sur 33 Sur 0 -- -- 92
2021-02-02 17:00:00 9.6 24 Sur 38 Sur 0 -- -- 89
2021-02-02 16:00:00 9.8 21 Sur 39 Sur 0 -- -- 89
2021-02-02 15:00:00 9.8 25 Sur 37 Sur 0 -- -- 88
2021-02-02 14:00:00 9.5 26 Sur 37 Sur 0 -- -- 91
2021-02-02 13:00:00 9.4 21 Sur 32 Sur 0 -- -- 89
2021-02-02 12:00:00 9.2 19 Sur 30 Sur 0 -- -- 88
2021-02-02 11:00:00 8.7 18 Sur 30 Sudoeste 0 -- -- 88
2021-02-02 10:00:00 8.7 17 Sudoeste 28 Sudoeste 0 -- -- 93
2021-02-02 09:00:00 8.7 18 Sur 25 Sur 0.2 -- -- 96
2021-02-02 08:00:00 8.9 12 Sur 20 Sur 0 -- -- 96
2021-02-02 07:00:00 9.1 10 Sur 19 Sur 0 -- -- 97
2021-02-02 06:00:00 9 12 Sur 18 Sur 0 -- -- 97
2021-02-02 05:00:00 8.8 12 Sur 22 Sur 0 -- -- 96
2021-02-02 04:00:00 9.2 15 Sur 21 Sur 0 -- -- 95
2021-02-02 03:00:00 9.5 14 Sur 26 Sur 0 -- -- 94
2021-02-02 02:00:00 9.7 16 Sur 24 Sur 0 -- -- 93
2021-02-02 01:00:00 9.7 14 Sur 25 Sur 0 -- -- 93
2021-02-02 00:00:00 9.7 16 Sur 23 Sur 0 -- -- 92
2021-02-01 23:00:00 9.7 12 Sur 24 Sur 0 -- -- 92
2021-02-01 22:00:00 9.7 12 Sur 25 Sur 0 -- -- 90
2021-02-01 21:00:00 10.2 15 Sur 22 Sur 0 -- -- 86
2021-02-01 20:00:00 10.8 13 Sur 19 Sur 0 -- -- 85
2021-02-01 19:00:00 11.7 12 Sur 18 Sur 0 -- -- 77
2021-02-01 18:00:00 13 8 Sudoeste 15 Sudoeste 0 -- -- 70
2021-02-01 17:00:00 13.3 9 Oeste 21 Oeste 0 -- -- 68
2021-02-01 16:00:00 13.2 14 Noroeste 24 Oeste 0 -- -- 70
2021-02-01 15:00:00 12.7 12 Noroeste 21 Oeste 0 -- -- 69
2021-02-01 14:00:00 13.1 14 Oeste 24 Sudoeste 0 -- -- 68
2021-02-01 13:00:00 11.3 10 Oeste 19 Noroeste 0 -- -- 75
2021-02-01 12:00:00 10.4 6 Sudoeste 17 Oeste 0 -- -- 80
2021-02-01 11:00:00 9.4 7 Oeste 15 Sudoeste 0 -- -- 85
2021-02-01 10:00:00 8.7 4 Sudoeste 19 Noroeste 0 -- -- 86
2021-02-01 09:00:00 8.5 17 Noroeste 31 Oeste 0 -- -- 84
2021-02-01 08:00:00 8.2 6 Noroeste 28 Oeste 0 -- -- 88
2021-02-01 07:00:00 8.3 15 Noroeste 24 Noroeste 0 -- -- 87
2021-02-01 06:00:00 8.3 10 Noroeste 35 Noroeste 0 -- -- 88
2021-02-01 05:00:00 8.3 19 Noroeste 31 Noroeste 0 -- -- 89
2021-02-01 04:00:00 8.1 21 Noroeste 34 Noroeste 0 -- -- 89
2021-02-01 03:00:00 8.2 23 Noroeste 36 Oeste 0 -- -- 87
2021-02-01 02:00:00 8.2 19 Oeste 29 Noroeste 0 -- -- 86
2021-02-01 01:00:00 9 26 Noroeste 42 Oeste 0 -- -- 86
2021-02-01 00:00:00 9.5 22 Oeste 33 Oeste 0 -- -- 86
2021-01-31 23:00:00 10.2 26 Oeste 44 Oeste 0 -- -- 84
2021-01-31 22:00:00 10.1 17 Oeste 35 Oeste 0 -- -- 86
2021-01-31 21:00:00 10.5 26 Oeste 40 Oeste 0 -- -- 83
2021-01-31 20:00:00 10.6 27 Oeste 43 Oeste 0 -- -- 83
2021-01-31 19:00:00 11.8 32 Oeste 53 Oeste 0 -- -- 82
2021-01-31 18:00:00 12.4 21 Noroeste 39 Noroeste 0 -- -- 90
2021-01-31 17:00:00 13.1 24 Noroeste 47 Oeste 0 -- -- 86
2021-01-31 16:00:00 13.8 23 Oeste 45 Oeste 0 -- -- 83
2021-01-31 15:00:00 14.2 26 Oeste 40 Oeste 0 -- -- 81
2021-01-31 14:00:00 13.5 16 Oeste 27 Noroeste 0 -- -- 86
2021-01-31 13:00:00 12.7 23 Oeste 35 Oeste 0 -- -- 89
2021-01-31 12:00:00 9.4 4 Sur 25 Sur 0 -- -- 95
2021-01-31 11:00:00 9.1 14 Sudoeste 26 Sur 0 -- -- 92
2021-01-31 10:00:00 8.3 9 Sur 18 Sur 0 -- -- 91
2021-01-31 09:00:00 7.5 8 Sur 15 Sudoeste 0 -- -- 93
2021-01-31 08:00:00 7.5 4 Sudeste 10 Oeste 0 -- -- 92
2021-01-31 07:00:00 7.3 6 Oeste 17 Oeste 0 -- -- 92
2021-01-31 06:00:00 7.1 9 Noroeste 27 Oeste 0 -- -- 92
2021-01-31 05:00:00 6.9 18 Noroeste 27 Noroeste 0 -- -- 91
2021-01-31 04:00:00 6.7 19 Noroeste 27 Noroeste 0 -- -- 89
2021-01-31 03:00:00 6.7 18 Noroeste 35 Noroeste 0 -- -- 85
2021-01-31 02:00:00 6.7 26 Noroeste 44 Noroeste 0 -- -- 86
2021-01-31 01:00:00 6.7 28 Noroeste 44 Noroeste 0 -- -- 84
2021-01-31 00:00:00 6.7 25 Noroeste 40 Noroeste 0 -- -- 85
2021-01-30 23:00:00 6.8 21 Noroeste 40 Noroeste 0 -- -- 84
2021-01-30 22:00:00 7 27 Noroeste 46 Oeste 0 -- -- 84
2021-01-30 21:00:00 7.2 24 Noroeste 43 Oeste 0 -- -- 83
2021-01-30 20:00:00 6.9 26 Noroeste 48 Oeste 0 -- -- 83
2021-01-30 19:00:00 7.3 23 Oeste 45 Noroeste 0 -- -- 83
2021-01-30 18:00:00 7.3 29 Noroeste 48 Noroeste 0 -- -- 85
2021-01-30 17:00:00 7.7 19 Noroeste 45 Oeste 0 -- -- 78
2021-01-30 16:00:00 7.3 26 Oeste 53 Oeste 0 -- -- 84
2021-01-30 15:00:00 8.6 27 Oeste 48 Noroeste 0 -- -- 76
2021-01-30 14:00:00 9.7 34 Oeste 52 Oeste 0 -- -- 62
2021-01-30 13:00:00 9.4 28 Oeste 51 Oeste 0 -- -- 71
2021-01-30 12:00:00 9.3 24 Oeste 48 Noroeste 0 -- -- 71
2021-01-30 11:00:00 7.8 26 Noroeste 42 Noroeste 0 -- -- 78
2021-01-30 10:00:00 7.3 10 Oeste 32 Oeste 0 -- -- 82
2021-01-30 09:00:00 7 22 Oeste 35 Oeste 0 -- -- 82
2021-01-30 08:00:00 7.1 11 Oeste 32 Oeste 0 -- -- 89
2021-01-30 07:00:00 7.3 17 Oeste 28 Oeste 0 -- -- 91
2021-01-30 06:00:00 8.3 14 Oeste 28 Oeste 0.8 -- -- 95
2021-01-30 05:00:00 7.8 17 Sur 23 Sudoeste 0.8 -- -- 97
2021-01-30 04:00:00 8.3 18 Oeste 33 Sur 5.8 -- -- 97
2021-01-30 03:00:00 8.6 26 Sur 36 Sudoeste 0.4 -- -- 96
2021-01-30 02:00:00 8.9 24 Sur 40 Sur 0 -- -- 96
2021-01-30 01:00:00 8.9 21 Sur 30 Sur 0 -- -- 95
2021-01-30 00:00:00 9.1 18 Sur 33 Sur 0 -- -- 94